Hertfordshire — ZDJS5 — position and weather

sailwx.info

Track history (hours):
 
Tides and Currents Weather Stations Pressure Air Temp Water Temp Dewpoint Dewpoint Depression Visibility Wind Speed Wind Dir Waves Ship Positions

Hertfordshire

Last reported at 2015-May-05 16:33 UTC. Time now 2015-May-05 17:18 UTC.
Position N 51°19' E 003°49'.

Length 83 m; draft 5 m.

Type: Cargo ship. MMSI: 236563000.

Date/timePositionNaut miles runAvg speedWind from/ knotsBaromVisibWave heightAir tempDewpointWater temp
2015-May-05 16:33N 51°19' E 003°49'0 0.0
2015-May-05 15:30N 51°19' E 003°49'0 0.0
2015-May-05 14:33N 51°19' E 003°49'0 0.0
2015-May-05 13:33N 51°19' E 003°49'0 0.0
2015-May-05 12:30N 51°19' E 003°49'0 0.0
2015-May-05 11:33N 51°19' E 003°49'0 0.0
2015-May-05 10:30N 51°19' E 003°49'0 0.0
2015-May-05 09:33N 51°19' E 003°49'0 0.0
2015-May-05 08:33N 51°19' E 003°49'0 0.0
2015-May-05 07:33N 51°19' E 003°49'0 0.0
2015-May-05 06:33N 51°19' E 003°49'0 0.0
2015-May-05 05:33N 51°19' E 003°49'0 0.0
2015-May-05 04:33N 51°19' E 003°49'0 0.0
2015-May-05 03:33N 51°19' E 003°49'0 0.0
2015-May-05 02:33N 51°19' E 003°49'0 0.0
2015-May-05 01:30N 51°19' E 003°49'0 0.0
2015-May-05 00:27N 51°19' E 003°49'0 0.0
2015-May-04 23:33N 51°19' E 003°49'0 0.0
2015-May-04 22:33N 51°19' E 003°49'0 0.0
2015-May-04 21:33N 51°19' E 003°49'0 0.0
2015-May-04 20:33N 51°19' E 003°49'0 0.0
2015-May-04 19:33N 51°19' E 003°49'0 0.0
2015-May-04 18:33N 51°19' E 003°49'0 0.0
2015-May-04 17:33N 51°19' E 003°49'0 0.3
2015-May-04 16:30N 51°19' E 003°50'0 0.0
2015-May-04 15:33N 51°19' E 003°50'0 0.0
2015-May-04 14:33N 51°19' E 003°50'0 0.0
2015-May-04 13:30N 51°19' E 003°50'0 0.0
2015-May-04 12:33N 51°19' E 003°50'0 0.0
2015-May-04 11:33N 51°19' E 003°50'0 0.0
2015-May-04 10:30N 51°19' E 003°50'0 0.0
2015-May-04 09:30N 51°19' E 003°50'0 0.0
2015-May-04 08:21N 51°19' E 003°50'0 0.0
2015-May-04 07:33N 51°19' E 003°50'0 0.0
2015-May-04 06:30N 51°19' E 003°50'0 0.0
2015-May-04 05:33N 51°19' E 003°50'0 0.0
2015-May-04 04:27N 51°19' E 003°50'0 0.0
2015-May-04 03:33N 51°19' E 003°50'0 0.0
2015-May-04 02:30N 51°19' E 003°50'1 1.3
2015-May-04 01:34N 51°20' E 003°49'8 7.9
2015-May-04 00:33N 51°25' E 003°39'1110.5
2015-May-03 23:33N 51°32' E 003°26'1010.0
2015-May-03 22:33N 51°40' E 003°18'64 5.0
2015-May-03 09:33N 52°30' E 002°11'9 9.0
2015-May-03 08:32N 52°38' E 002°02'9 9.7
2015-May-03 07:33N 52°45' E 001°52'1010.0
2015-May-03 06:33N 52°50' E 001°38'10 9.8
2015-May-03 05:33N 52°55' E 001°25'9 9.4
2015-May-03 04:33N 53°00' E 001°11'41 6.8
2015-May-02 22:34N 53°33' E 000°32'6 5.8
2015-May-02 21:33N 53°39' E 000°29'6 6.0
2015-May-02 20:33N 53°44' E 000°25'7 6.6
2015-May-02 19:33N 53°50' E 000°19'7 7.5
2015-May-02 18:33N 53°57' E 000°13'8 8.2
2015-May-02 17:34N 54°04' E 000°07'9 9.1
2015-May-02 16:34N 54°11' W 000°03'10 9.5
2015-May-02 15:33N 54°18' W 000°13'10 9.9
2015-May-02 14:33N 54°26' W 000°24'12 9.8
2015-May-02 13:18N 54°35' W 000°39'7 9.3
2015-May-02 12:33N 54°40' W 000°47'9 8.9
2015-May-02 11:33N 54°47' W 000°58'9 8.7
2015-May-02 10:31N 54°53' W 001°08'8 8.5
2015-May-02 09:34N 54°59' W 001°17'3 0.1
2015-Apr-30 14:06N 55°01' W 001°21'6 8.8
2015-Apr-30 13:25N 54°57' W 001°14'8 9.0
2015-Apr-30 12:33N 54°51' W 001°05'10 9.5
2015-Apr-30 11:33N 54°44' W 000°54'10 9.7
2015-Apr-30 10:33N 54°37' W 000°43'10 9.7
2015-Apr-30 09:34N 54°30' W 000°31'1010.1
2015-Apr-30 08:33N 54°22' W 000°20'1110.7
2015-Apr-30 07:33N 54°14' W 000°07'1111.0
2015-Apr-30 06:33N 54°06' E 000°04'1111.0
2015-Apr-30 05:32N 53°56' E 000°13'1010.7
2015-Apr-30 04:33N 53°46' E 000°21'10 9.9
2015-Apr-30 03:33N 53°38' E 000°29'39 9.6
2015-Apr-29 23:28N 53°04' E 001°03'1111.8
2015-Apr-29 22:34N 52°59' E 001°18'1212.2
2015-Apr-29 21:33N 52°52' E 001°35'1111.4
2015-Apr-29 20:33N 52°43' E 001°47'1010.1
2015-Apr-29 19:34N 52°34' E 001°53'9 9.4
2015-Apr-29 18:33N 52°24' E 001°52'9 8.9
2015-Apr-29 17:33N 52°15' E 001°51'9 9.2
2015-Apr-29 16:34N 52°06' E 001°50'10 9.8
2015-Apr-29 15:33N 51°56' E 001°48'1110.5
2015-Apr-29 14:34N 51°46' E 001°48'1010.2
2015-Apr-29 13:33N 51°36' E 001°44'1111.3
2015-Apr-29 12:33N 51°28' E 001°30'6 5.8
2015-Apr-29 11:33N 51°25' E 001°23'0 0.0
2015-Apr-29 10:34N 51°25' E 001°23'0 0.0
2015-Apr-29 09:34N 51°25' E 001°23'0 0.1
2015-Apr-29 08:34N 51°25' E 001°23'0 0.1
2015-Apr-29 07:33N 51°24' E 001°23'0 0.0
2015-Apr-29 06:33N 51°24' E 001°23'0 0.0
2015-Apr-29 05:33N 51°24' E 001°23'0 0.0
2015-Apr-29 04:33N 51°25' E 001°23'0 0.0
2015-Apr-29 03:34N 51°25' E 001°23'0 0.0
2015-Apr-29 02:33N 51°25' E 001°23'0 0.0
2015-Apr-29 01:34N 51°25' E 001°23'0 0.0
2015-Apr-29 00:33N 51°25' E 001°23'0 0.0
2015-Apr-28 23:33N 51°25' E 001°23'0 0.0
2015-Apr-28 22:33N 51°25' E 001°23'0 0.0
2015-Apr-28 21:33N 51°24' E 001°23'0 0.0
2015-Apr-28 20:32N 51°25' E 001°23'0 0.1
2015-Apr-28 19:34N 51°25' E 001°23'0 0.0
2015-Apr-28 18:33N 51°25' E 001°23'0 0.0
2015-Apr-28 17:33N 51°25' E 001°23'0 0.1
2015-Apr-28 16:33N 51°24' E 001°23'0 0.1
2015-Apr-28 15:33N 51°24' E 001°23'0 0.0
2015-Apr-28 14:33N 51°24' E 001°23'0 0.0
2015-Apr-28 13:33N 51°24' E 001°23'0 0.0
2015-Apr-28 12:33N 51°24' E 001°23'0 0.0
2015-Apr-28 11:33N 51°24' E 001°23'0 0.0
2015-Apr-28 10:33N 51°24' E 001°23'0 0.0
2015-Apr-28 09:34N 51°24' E 001°23'0 0.0
2015-Apr-28 08:33N 51°24' E 001°23'0 0.0
2015-Apr-28 07:33N 51°24' E 001°23'0 0.1
2015-Apr-28 06:33N 51°24' E 001°23'0 0.0
2015-Apr-28 05:33N 51°24' E 001°23'0 0.1
2015-Apr-28 04:33N 51°24' E 001°23'0 0.1
2015-Apr-28 03:32N 51°24' E 001°23'0 0.0
2015-Apr-28 02:34N 51°24' E 001°23'0 0.0
2015-Apr-28 01:33N 51°24' E 001°23'0 0.0
2015-Apr-28 00:33N 51°24' E 001°23'1 0.7
2015-Apr-27 23:34N 51°25' E 001°24'9 9.3
2015-Apr-27 22:33N 51°29' E 001°11'1212.0
2015-Apr-27 21:33N 51°29' E 000°52'1111.4
2015-Apr-27 20:33N 51°30' E 000°33'9 8.6
2015-Apr-27 19:34N 51°27' E 000°20'1 0.6
2015-Apr-27 18:34N 51°28' E 000°21'0 0.0
2015-Apr-27 17:31N 51°28' E 000°21'0 0.0
2015-Apr-27 16:31N 51°28' E 000°21'0 0.0
2015-Apr-27 15:31N 51°28' E 000°21'0 0.0
2015-Apr-27 14:34N 51°28' E 000°21'0 0.0
2015-Apr-27 13:33N 51°28' E 000°21'0 0.0
2015-Apr-27 12:34N 51°28' E 000°21'0 0.0
2015-Apr-27 11:34N 51°28' E 000°21'0 0.0
2015-Apr-27 10:34N 51°28' E 000°21'0 0.0
2015-Apr-27 09:34N 51°28' E 000°21'0 0.0
2015-Apr-27 08:33N 51°28' E 000°21'0 0.0
2015-Apr-27 07:33N 51°28' E 000°21'0 0.0
2015-Apr-27 06:33N 51°28' E 000°21'0 0.0
2015-Apr-27 05:31N 51°28' E 000°21'0 0.0
2015-Apr-27 04:31N 51°28' E 000°21'0 0.0
2015-Apr-27 03:33N 51°28' E 000°21'0 0.0
2015-Apr-27 02:34N 51°28' E 000°21'0 0.0
2015-Apr-27 01:33N 51°28' E 000°21'0 0.0
2015-Apr-27 00:33N 51°28' E 000°21'0 0.0
2015-Apr-26 23:34N 51°28' E 000°21'0 0.0
2015-Apr-26 22:34N 51°28' E 000°21'0 0.0
2015-Apr-26 21:33N 51°28' E 000°21'0 0.0
2015-Apr-26 20:34N 51°28' E 000°21'0 0.0
2015-Apr-26 19:34N 51°28' E 000°21'0 0.0
2015-Apr-26 18:33N 51°28' E 000°21'0 0.0
2015-Apr-26 17:34N 51°28' E 000°21'0 0.0
2015-Apr-26 16:34N 51°28' E 000°21'0 0.0
2015-Apr-26 15:31N 51°28' E 000°21'0 0.0
2015-Apr-26 14:34N 51°28' E 000°21'0 0.0
2015-Apr-26 13:32N 51°28' E 000°21'0 0.0
2015-Apr-26 12:29N 51°28' E 000°21'0 0.0
2015-Apr-26 11:33N 51°28' E 000°21'0 0.0
2015-Apr-26 10:33N 51°28' E 000°21'0 0.0
2015-Apr-26 09:33N 51°28' E 000°21'0 0.0
2015-Apr-26 08:33N 51°28' E 000°21'0 0.0
2015-Apr-26 07:33N 51°28' E 000°21'0 0.0
2015-Apr-26 06:33N 51°28' E 000°21'0 0.0
2015-Apr-26 05:33N 51°28' E 000°21'0 0.0
2015-Apr-26 04:34N 51°28' E 000°21'0 0.0
2015-Apr-26 03:34N 51°28' E 000°21'0 0.0
2015-Apr-26 02:33N 51°28' E 000°21'0 0.0
2015-Apr-26 01:33N 51°28' E 000°21'0 0.0
2015-Apr-26 00:32N 51°28' E 000°21'0 0.0
2015-Apr-25 23:33N 51°28' E 000°21'0 0.0
2015-Apr-25 22:34N 51°28' E 000°21'0 0.0
2015-Apr-25 21:31N 51°28' E 000°21'0 0.0
2015-Apr-25 20:34N 51°28' E 000°21'0 0.0
2015-Apr-25 19:34N 51°28' E 000°21'0 0.0
2015-Apr-25 18:33N 51°28' E 000°21'0 0.0
2015-Apr-25 17:34N 51°28' E 000°21'0 0.0
2015-Apr-25 16:34N 51°28' E 000°21'  
Track history (hours):
 
Tides and Currents Weather Stations Pressure Air Temp Water Temp Dewpoint Dewpoint Depression Visibility Wind Speed Wind Dir Waves Ship Positions

Hertfordshire

Last reported at 2015-May-05 16:33 UTC. Time now 2015-May-05 17:18 UTC.
Position N 51°19' E 003°49'.

Length 83 m; draft 5 m.

Type: Cargo ship. MMSI: 236563000.

Date/timePositionNaut miles runAvg speedWind from/ knotsBaromVisibWave heightAir tempDewpointWater temp
2015-May-05 16:33N 51°19' E 003°49'0 0.0
2015-May-05 15:30N 51°19' E 003°49'0 0.0
2015-May-05 14:33N 51°19' E 003°49'0 0.0
2015-May-05 13:33N 51°19' E 003°49'0 0.0
2015-May-05 12:30N 51°19' E 003°49'0 0.0
2015-May-05 11:33N 51°19' E 003°49'0 0.0
2015-May-05 10:30N 51°19' E 003°49'0 0.0
2015-May-05 09:33N 51°19' E 003°49'0 0.0
2015-May-05 08:33N 51°19' E 003°49'0 0.0
2015-May-05 07:33N 51°19' E 003°49'0 0.0
2015-May-05 06:33N 51°19' E 003°49'0 0.0
2015-May-05 05:33N 51°19' E 003°49'0 0.0
2015-May-05 04:33N 51°19' E 003°49'0 0.0
2015-May-05 03:33N 51°19' E 003°49'0 0.0
2015-May-05 02:33N 51°19' E 003°49'0 0.0
2015-May-05 01:30N 51°19' E 003°49'0 0.0
2015-May-05 00:27N 51°19' E 003°49'0 0.0
2015-May-04 23:33N 51°19' E 003°49'0 0.0
2015-May-04 22:33N 51°19' E 003°49'0 0.0
2015-May-04 21:33N 51°19' E 003°49'0 0.0
2015-May-04 20:33N 51°19' E 003°49'0 0.0
2015-May-04 19:33N 51°19' E 003°49'0 0.0
2015-May-04 18:33N 51°19' E 003°49'0 0.0
2015-May-04 17:33N 51°19' E 003°49'0 0.3
2015-May-04 16:30N 51°19' E 003°50'0 0.0
2015-May-04 15:33N 51°19' E 003°50'0 0.0
2015-May-04 14:33N 51°19' E 003°50'0 0.0
2015-May-04 13:30N 51°19' E 003°50'0 0.0
2015-May-04 12:33N 51°19' E 003°50'0 0.0
2015-May-04 11:33N 51°19' E 003°50'0 0.0
2015-May-04 10:30N 51°19' E 003°50'0 0.0
2015-May-04 09:30N 51°19' E 003°50'0 0.0
2015-May-04 08:21N 51°19' E 003°50'0 0.0
2015-May-04 07:33N 51°19' E 003°50'0 0.0
2015-May-04 06:30N 51°19' E 003°50'0 0.0
2015-May-04 05:33N 51°19' E 003°50'0 0.0
2015-May-04 04:27N 51°19' E 003°50'0 0.0
2015-May-04 03:33N 51°19' E 003°50'0 0.0
2015-May-04 02:30N 51°19' E 003°50'1 1.3
2015-May-04 01:34N 51°20' E 003°49'8 7.9
2015-May-04 00:33N 51°25' E 003°39'1110.5
2015-May-03 23:33N 51°32' E 003°26'1010.0
2015-May-03 22:33N 51°40' E 003°18'64 5.0
2015-May-03 09:33N 52°30' E 002°11'9 9.0
2015-May-03 08:32N 52°38' E 002°02'9 9.7
2015-May-03 07:33N 52°45' E 001°52'1010.0
2015-May-03 06:33N 52°50' E 001°38'10 9.8
2015-May-03 05:33N 52°55' E 001°25'9 9.4
2015-May-03 04:33N 53°00' E 001°11'41 6.8
2015-May-02 22:34N 53°33' E 000°32'6 5.8
2015-May-02 21:33N 53°39' E 000°29'6 6.0
2015-May-02 20:33N 53°44' E 000°25'7 6.6
2015-May-02 19:33N 53°50' E 000°19'7 7.5
2015-May-02 18:33N 53°57' E 000°13'8 8.2
2015-May-02 17:34N 54°04' E 000°07'9 9.1
2015-May-02 16:34N 54°11' W 000°03'10 9.5
2015-May-02 15:33N 54°18' W 000°13'10 9.9
2015-May-02 14:33N 54°26' W 000°24'12 9.8
2015-May-02 13:18N 54°35' W 000°39'7 9.3
2015-May-02 12:33N 54°40' W 000°47'9 8.9
2015-May-02 11:33N 54°47' W 000°58'9 8.7
2015-May-02 10:31N 54°53' W 001°08'8 8.5
2015-May-02 09:34N 54°59' W 001°17'3 0.1
2015-Apr-30 14:06N 55°01' W 001°21'6 8.8
2015-Apr-30 13:25N 54°57' W 001°14'8 9.0
2015-Apr-30 12:33N 54°51' W 001°05'10 9.5
2015-Apr-30 11:33N 54°44' W 000°54'10 9.7
2015-Apr-30 10:33N 54°37' W 000°43'10 9.7
2015-Apr-30 09:34N 54°30' W 000°31'1010.1
2015-Apr-30 08:33N 54°22' W 000°20'1110.7
2015-Apr-30 07:33N 54°14' W 000°07'1111.0
2015-Apr-30 06:33N 54°06' E 000°04'1111.0
2015-Apr-30 05:32N 53°56' E 000°13'1010.7
2015-Apr-30 04:33N 53°46' E 000°21'10 9.9
2015-Apr-30 03:33N 53°38' E 000°29'39 9.6
2015-Apr-29 23:28N 53°04' E 001°03'1111.8
2015-Apr-29 22:34N 52°59' E 001°18'1212.2
2015-Apr-29 21:33N 52°52' E 001°35'1111.4
2015-Apr-29 20:33N 52°43' E 001°47'1010.1
2015-Apr-29 19:34N 52°34' E 001°53'9 9.4
2015-Apr-29 18:33N 52°24' E 001°52'9 8.9
2015-Apr-29 17:33N 52°15' E 001°51'9 9.2
2015-Apr-29 16:34N 52°06' E 001°50'10 9.8
2015-Apr-29 15:33N 51°56' E 001°48'1110.5
2015-Apr-29 14:34N 51°46' E 001°48'1010.2
2015-Apr-29 13:33N 51°36' E 001°44'1111.3
2015-Apr-29 12:33N 51°28' E 001°30'6 5.8
2015-Apr-29 11:33N 51°25' E 001°23'0 0.0
2015-Apr-29 10:34N 51°25' E 001°23'0 0.0
2015-Apr-29 09:34N 51°25' E 001°23'0 0.1
2015-Apr-29 08:34N 51°25' E 001°23'0 0.1
2015-Apr-29 07:33N 51°24' E 001°23'0 0.0
2015-Apr-29 06:33N 51°24' E 001°23'0 0.0
2015-Apr-29 05:33N 51°24' E 001°23'0 0.0
2015-Apr-29 04:33N 51°25' E 001°23'0 0.0
2015-Apr-29 03:34N 51°25' E 001°23'0 0.0
2015-Apr-29 02:33N 51°25' E 001°23'0 0.0
2015-Apr-29 01:34N 51°25' E 001°23'0 0.0
2015-Apr-29 00:33N 51°25' E 001°23'0 0.0
2015-Apr-28 23:33N 51°25' E 001°23'0 0.0
2015-Apr-28 22:33N 51°25' E 001°23'0 0.0
2015-Apr-28 21:33N 51°24' E 001°23'0 0.0
2015-Apr-28 20:32N 51°25' E 001°23'0 0.1
2015-Apr-28 19:34N 51°25' E 001°23'0 0.0
2015-Apr-28 18:33N 51°25' E 001°23'0 0.0
2015-Apr-28 17:33N 51°25' E 001°23'0 0.1
2015-Apr-28 16:33N 51°24' E 001°23'0 0.1
2015-Apr-28 15:33N 51°24' E 001°23'0 0.0
2015-Apr-28 14:33N 51°24' E 001°23'0 0.0
2015-Apr-28 13:33N 51°24' E 001°23'0 0.0
2015-Apr-28 12:33N 51°24' E 001°23'0 0.0
2015-Apr-28 11:33N 51°24' E 001°23'0 0.0
2015-Apr-28 10:33N 51°24' E 001°23'0 0.0
2015-Apr-28 09:34N 51°24' E 001°23'0 0.0
2015-Apr-28 08:33N 51°24' E 001°23'0 0.0
2015-Apr-28 07:33N 51°24' E 001°23'0 0.1
2015-Apr-28 06:33N 51°24' E 001°23'0 0.0
2015-Apr-28 05:33N 51°24' E 001°23'0 0.1
2015-Apr-28 04:33N 51°24' E 001°23'0 0.1
2015-Apr-28 03:32N 51°24' E 001°23'0 0.0
2015-Apr-28 02:34N 51°24' E 001°23'0 0.0
2015-Apr-28 01:33N 51°24' E 001°23'0 0.0
2015-Apr-28 00:33N 51°24' E 001°23'1 0.7
2015-Apr-27 23:34N 51°25' E 001°24'9 9.3
2015-Apr-27 22:33N 51°29' E 001°11'1212.0
2015-Apr-27 21:33N 51°29' E 000°52'1111.4
2015-Apr-27 20:33N 51°30' E 000°33'9 8.6
2015-Apr-27 19:34N 51°27' E 000°20'1 0.6
2015-Apr-27 18:34N 51°28' E 000°21'0 0.0
2015-Apr-27 17:31N 51°28' E 000°21'0 0.0
2015-Apr-27 16:31N 51°28' E 000°21'0 0.0
2015-Apr-27 15:31N 51°28' E 000°21'0 0.0
2015-Apr-27 14:34N 51°28' E 000°21'0 0.0
2015-Apr-27 13:33N 51°28' E 000°21'0 0.0
2015-Apr-27 12:34N 51°28' E 000°21'0 0.0
2015-Apr-27 11:34N 51°28' E 000°21'0 0.0
2015-Apr-27 10:34N 51°28' E 000°21'0 0.0
2015-Apr-27 09:34N 51°28' E 000°21'0 0.0
2015-Apr-27 08:33N 51°28' E 000°21'0 0.0
2015-Apr-27 07:33N 51°28' E 000°21'0 0.0
2015-Apr-27 06:33N 51°28' E 000°21'0 0.0
2015-Apr-27 05:31N 51°28' E 000°21'0 0.0
2015-Apr-27 04:31N 51°28' E 000°21'0 0.0
2015-Apr-27 03:33N 51°28' E 000°21'0 0.0
2015-Apr-27 02:34N 51°28' E 000°21'0 0.0
2015-Apr-27 01:33N 51°28' E 000°21'0 0.0
2015-Apr-27 00:33N 51°28' E 000°21'0 0.0
2015-Apr-26 23:34N 51°28' E 000°21'0 0.0
2015-Apr-26 22:34N 51°28' E 000°21'0 0.0
2015-Apr-26 21:33N 51°28' E 000°21'0 0.0
2015-Apr-26 20:34N 51°28' E 000°21'0 0.0
2015-Apr-26 19:34N 51°28' E 000°21'0 0.0
2015-Apr-26 18:33N 51°28' E 000°21'0 0.0
2015-Apr-26 17:34N 51°28' E 000°21'0 0.0
2015-Apr-26 16:34N 51°28' E 000°21'0 0.0
2015-Apr-26 15:31N 51°28' E 000°21'0 0.0
2015-Apr-26 14:34N 51°28' E 000°21'0 0.0
2015-Apr-26 13:32N 51°28' E 000°21'0 0.0
2015-Apr-26 12:29N 51°28' E 000°21'0 0.0
2015-Apr-26 11:33N 51°28' E 000°21'0 0.0
2015-Apr-26 10:33N 51°28' E 000°21'0 0.0
2015-Apr-26 09:33N 51°28' E 000°21'0 0.0
2015-Apr-26 08:33N 51°28' E 000°21'0 0.0
2015-Apr-26 07:33N 51°28' E 000°21'0 0.0
2015-Apr-26 06:33N 51°28' E 000°21'0 0.0
2015-Apr-26 05:33N 51°28' E 000°21'0 0.0
2015-Apr-26 04:34N 51°28' E 000°21'0 0.0
2015-Apr-26 03:34N 51°28' E 000°21'0 0.0
2015-Apr-26 02:33N 51°28' E 000°21'0 0.0
2015-Apr-26 01:33N 51°28' E 000°21'0 0.0
2015-Apr-26 00:32N 51°28' E 000°21'0 0.0
2015-Apr-25 23:33N 51°28' E 000°21'0 0.0
2015-Apr-25 22:34N 51°28' E 000°21'0 0.0
2015-Apr-25 21:31N 51°28' E 000°21'0 0.0
2015-Apr-25 20:34N 51°28' E 000°21'0 0.0
2015-Apr-25 19:34N 51°28' E 000°21'0 0.0
2015-Apr-25 18:33N 51°28' E 000°21'0 0.0
2015-Apr-25 17:34N 51°28' E 000°21'0 0.0
2015-Apr-25 16:34N 51°28' E 000°21'  

Dump ship's entire track history